sensor_id;sensor_type;location;lat;lon;timestamp;P1;durP1;ratioP1;P2;durP2;ratioP2
15216;SDS011;7711;46.634;14.318;2024-03-25T00:01:21;8.27;;;6.17;;
15216;SDS011;7711;46.634;14.318;2024-03-25T00:03:48;9.93;;;6.37;;
15216;SDS011;7711;46.634;14.318;2024-03-25T00:06:16;9.33;;;5.77;;
15216;SDS011;7711;46.634;14.318;2024-03-25T00:08:43;7.30;;;5.63;;
15216;SDS011;7711;46.634;14.318;2024-03-25T00:11:09;11.30;;;5.80;;
15216;SDS011;7711;46.634;14.318;2024-03-25T00:13:37;8.30;;;5.87;;
15216;SDS011;7711;46.634;14.318;2024-03-25T00:16:03;8.93;;;5.57;;
15216;SDS011;7711;46.634;14.318;2024-03-25T00:18:33;9.70;;;5.67;;
15216;SDS011;7711;46.634;14.318;2024-03-25T00:20:59;7.00;;;5.37;;
15216;SDS011;7711;46.634;14.318;2024-03-25T00:23:26;7.27;;;5.33;;
15216;SDS011;7711;46.634;14.318;2024-03-25T00:25:52;7.20;;;5.33;;
15216;SDS011;7711;46.634;14.318;2024-03-25T00:28:20;8.10;;;6.07;;
15216;SDS011;7711;46.634;14.318;2024-03-25T00:30:46;8.13;;;5.30;;
15216;SDS011;7711;46.634;14.318;2024-03-25T00:33:13;8.27;;;5.30;;
15216;SDS011;7711;46.634;14.318;2024-03-25T00:35:43;6.73;;;4.90;;
15216;SDS011;7711;46.634;14.318;2024-03-25T00:38:11;6.87;;;5.47;;
15216;SDS011;7711;46.634;14.318;2024-03-25T00:40:38;6.23;;;4.90;;
15216;SDS011;7711;46.634;14.318;2024-03-25T00:43:05;7.73;;;5.30;;
15216;SDS011;7711;46.634;14.318;2024-03-25T00:45:31;9.70;;;5.47;;
15216;SDS011;7711;46.634;14.318;2024-03-25T00:47:59;7.67;;;5.00;;
15216;SDS011;7711;46.634;14.318;2024-03-25T00:50:26;6.50;;;4.83;;
15216;SDS011;7711;46.634;14.318;2024-03-25T00:52:55;9.00;;;5.30;;
15216;SDS011;7711;46.634;14.318;2024-03-25T00:55:21;8.67;;;5.60;;
15216;SDS011;7711;46.634;14.318;2024-03-25T00:57:50;5.87;;;4.53;;
15216;SDS011;7711;46.634;14.318;2024-03-25T01:00:16;6.23;;;5.03;;
15216;SDS011;7711;46.634;14.318;2024-03-25T01:02:44;6.10;;;4.77;;
15216;SDS011;7711;46.634;14.318;2024-03-25T01:05:10;6.33;;;4.87;;
15216;SDS011;7711;46.634;14.318;2024-03-25T01:07:38;10.70;;;5.13;;
15216;SDS011;7711;46.634;14.318;2024-03-25T01:10:06;7.40;;;5.20;;
15216;SDS011;7711;46.634;14.318;2024-03-25T01:12:34;7.70;;;4.77;;
15216;SDS011;7711;46.634;14.318;2024-03-25T01:15:00;6.53;;;4.70;;
15216;SDS011;7711;46.634;14.318;2024-03-25T01:17:28;6.10;;;4.50;;
15216;SDS011;7711;46.634;14.318;2024-03-25T01:19:54;8.40;;;5.37;;
15216;SDS011;7711;46.634;14.318;2024-03-25T01:22:22;6.83;;;5.00;;
15216;SDS011;7711;46.634;14.318;2024-03-25T01:24:48;6.53;;;4.97;;
15216;SDS011;7711;46.634;14.318;2024-03-25T01:27:16;6.57;;;5.20;;
15216;SDS011;7711;46.634;14.318;2024-03-25T01:29:42;8.77;;;5.87;;
15216;SDS011;7711;46.634;14.318;2024-03-25T01:32:10;7.37;;;5.03;;
15216;SDS011;7711;46.634;14.318;2024-03-25T01:34:36;5.97;;;4.83;;
15216;SDS011;7711;46.634;14.318;2024-03-25T01:37:04;6.73;;;5.13;;
15216;SDS011;7711;46.634;14.318;2024-03-25T01:39:30;6.43;;;5.40;;
15216;SDS011;7711;46.634;14.318;2024-03-25T01:41:57;6.00;;;4.60;;
15216;SDS011;7711;46.634;14.318;2024-03-25T01:44:25;8.37;;;4.60;;
15216;SDS011;7711;46.634;14.318;2024-03-25T01:46:52;7.07;;;5.00;;
15216;SDS011;7711;46.634;14.318;2024-03-25T01:49:20;6.37;;;4.43;;
15216;SDS011;7711;46.634;14.318;2024-03-25T01:51:47;5.43;;;4.33;;
15216;SDS011;7711;46.634;14.318;2024-03-25T01:54:13;5.87;;;4.30;;
15216;SDS011;7711;46.634;14.318;2024-03-25T01:56:42;6.00;;;4.30;;
15216;SDS011;7711;46.634;14.318;2024-03-25T01:59:11;5.70;;;4.30;;
15216;SDS011;7711;46.634;14.318;2024-03-25T02:01:41;6.73;;;4.03;;
15216;SDS011;7711;46.634;14.318;2024-03-25T02:04:09;7.53;;;4.30;;
15216;SDS011;7711;46.634;14.318;2024-03-25T02:06:37;6.20;;;4.10;;
15216;SDS011;7711;46.634;14.318;2024-03-25T02:09:05;5.30;;;4.03;;
15216;SDS011;7711;46.634;14.318;2024-03-25T02:11:32;7.50;;;4.57;;
15216;SDS011;7711;46.634;14.318;2024-03-25T02:13:59;6.07;;;4.33;;
15216;SDS011;7711;46.634;14.318;2024-03-25T02:16:27;5.30;;;4.17;;
15216;SDS011;7711;46.634;14.318;2024-03-25T02:18:54;5.93;;;4.27;;
15216;SDS011;7711;46.634;14.318;2024-03-25T02:21:21;6.70;;;4.10;;
15216;SDS011;7711;46.634;14.318;2024-03-25T02:23:47;8.17;;;4.43;;
15216;SDS011;7711;46.634;14.318;2024-03-25T02:26:17;7.40;;;4.60;;
15216;SDS011;7711;46.634;14.318;2024-03-25T02:28:43;5.33;;;4.23;;
15216;SDS011;7711;46.634;14.318;2024-03-25T02:31:10;6.00;;;4.77;;
15216;SDS011;7711;46.634;14.318;2024-03-25T02:33:36;8.33;;;5.57;;
15216;SDS011;7711;46.634;14.318;2024-03-25T02:36:03;7.90;;;4.77;;
15216;SDS011;7711;46.634;14.318;2024-03-25T02:38:30;5.67;;;4.30;;
15216;SDS011;7711;46.634;14.318;2024-03-25T02:40:58;5.83;;;4.30;;
15216;SDS011;7711;46.634;14.318;2024-03-25T02:43:25;6.50;;;4.90;;
15216;SDS011;7711;46.634;14.318;2024-03-25T02:45:53;9.23;;;4.60;;
15216;SDS011;7711;46.634;14.318;2024-03-25T02:48:19;7.27;;;4.73;;
15216;SDS011;7711;46.634;14.318;2024-03-25T02:50:46;5.80;;;4.17;;
15216;SDS011;7711;46.634;14.318;2024-03-25T02:53:12;8.33;;;4.40;;
15216;SDS011;7711;46.634;14.318;2024-03-25T02:55:39;5.87;;;4.00;;
15216;SDS011;7711;46.634;14.318;2024-03-25T02:58:05;7.03;;;4.43;;
15216;SDS011;7711;46.634;14.318;2024-03-25T03:00:33;6.57;;;4.00;;
15216;SDS011;7711;46.634;14.318;2024-03-25T03:02:59;6.00;;;3.87;;
15216;SDS011;7711;46.634;14.318;2024-03-25T03:05:26;4.63;;;3.80;;
15216;SDS011;7711;46.634;14.318;2024-03-25T03:07:52;8.07;;;3.87;;
15216;SDS011;7711;46.634;14.318;2024-03-25T03:10:19;7.57;;;4.17;;
15216;SDS011;7711;46.634;14.318;2024-03-25T03:12:46;5.13;;;4.00;;
15216;SDS011;7711;46.634;14.318;2024-03-25T03:15:13;4.97;;;4.20;;
15216;SDS011;7711;46.634;14.318;2024-03-25T03:17:41;5.77;;;4.47;;
15216;SDS011;7711;46.634;14.318;2024-03-25T03:20:09;6.53;;;4.60;;
15216;SDS011;7711;46.634;14.318;2024-03-25T03:22:36;4.77;;;3.87;;
15216;SDS011;7711;46.634;14.318;2024-03-25T03:25:03;9.27;;;4.67;;
15216;SDS011;7711;46.634;14.318;2024-03-25T03:27:30;8.30;;;5.40;;
15216;SDS011;7711;46.634;14.318;2024-03-25T03:29:57;12.17;;;6.13;;
15216;SDS011;7711;46.634;14.318;2024-03-25T03:32:23;7.97;;;5.03;;
15216;SDS011;7711;46.634;14.318;2024-03-25T03:34:51;12.70;;;5.27;;
15216;SDS011;7711;46.634;14.318;2024-03-25T03:37:17;10.30;;;6.37;;
15216;SDS011;7711;46.634;14.318;2024-03-25T03:39:45;9.60;;;6.30;;
15216;SDS011;7711;46.634;14.318;2024-03-25T03:42:11;12.27;;;6.30;;
15216;SDS011;7711;46.634;14.318;2024-03-25T03:44:38;12.03;;;5.70;;
15216;SDS011;7711;46.634;14.318;2024-03-25T03:47:04;5.73;;;4.63;;
15216;SDS011;7711;46.634;14.318;2024-03-25T03:49:31;6.57;;;4.70;;
15216;SDS011;7711;46.634;14.318;2024-03-25T03:51:58;7.10;;;4.30;;
15216;SDS011;7711;46.634;14.318;2024-03-25T03:54:25;6.20;;;4.47;;
15216;SDS011;7711;46.634;14.318;2024-03-25T03:56:51;6.77;;;4.50;;
15216;SDS011;7711;46.634;14.318;2024-03-25T03:59:18;7.53;;;4.43;;
15216;SDS011;7711;46.634;14.318;2024-03-25T04:01:44;8.63;;;4.20;;
15216;SDS011;7711;46.634;14.318;2024-03-25T04:04:11;7.47;;;4.57;;
15216;SDS011;7711;46.634;14.318;2024-03-25T04:06:37;7.97;;;4.60;;
15216;SDS011;7711;46.634;14.318;2024-03-25T04:09:06;5.53;;;4.30;;
15216;SDS011;7711;46.634;14.318;2024-03-25T04:11:35;5.17;;;4.27;;
15216;SDS011;7711;46.634;14.318;2024-03-25T04:14:02;5.20;;;3.80;;
15216;SDS011;7711;46.634;14.318;2024-03-25T04:16:28;7.60;;;5.00;;
15216;SDS011;7711;46.634;14.318;2024-03-25T04:18:56;7.87;;;4.60;;
15216;SDS011;7711;46.634;14.318;2024-03-25T04:21:22;6.77;;;4.53;;
15216;SDS011;7711;46.634;14.318;2024-03-25T04:23:49;7.53;;;4.17;;
15216;SDS011;7711;46.634;14.318;2024-03-25T04:26:16;5.20;;;3.93;;
15216;SDS011;7711;46.634;14.318;2024-03-25T04:28:43;5.63;;;4.17;;
15216;SDS011;7711;46.634;14.318;2024-03-25T04:31:10;5.00;;;3.93;;
15216;SDS011;7711;46.634;14.318;2024-03-25T04:33:37;10.10;;;6.90;;
15216;SDS011;7711;46.634;14.318;2024-03-25T04:36:03;5.87;;;4.13;;
15216;SDS011;7711;46.634;14.318;2024-03-25T04:38:30;5.47;;;4.47;;
15216;SDS011;7711;46.634;14.318;2024-03-25T04:40:56;7.13;;;4.40;;
15216;SDS011;7711;46.634;14.318;2024-03-25T04:43:24;4.60;;;4.20;;
15216;SDS011;7711;46.634;14.318;2024-03-25T04:45:50;7.17;;;4.33;;
15216;SDS011;7711;46.634;14.318;2024-03-25T04:48:16;5.47;;;4.40;;
15216;SDS011;7711;46.634;14.318;2024-03-25T04:50:42;6.33;;;4.77;;
15216;SDS011;7711;46.634;14.318;2024-03-25T04:53:08;5.30;;;4.80;;
15216;SDS011;7711;46.634;14.318;2024-03-25T04:55:34;6.13;;;4.80;;
15216;SDS011;7711;46.634;14.318;2024-03-25T04:58:00;5.70;;;5.07;;
15216;SDS011;7711;46.634;14.318;2024-03-25T05:00:27;6.70;;;5.43;;
15216;SDS011;7711;46.634;14.318;2024-03-25T05:02:53;6.00;;;5.00;;
15216;SDS011;7711;46.634;14.318;2024-03-25T05:05:19;7.43;;;5.83;;
15216;SDS011;7711;46.634;14.318;2024-03-25T05:07:45;7.00;;;5.00;;
15216;SDS011;7711;46.634;14.318;2024-03-25T05:10:11;6.43;;;5.20;;
15216;SDS011;7711;46.634;14.318;2024-03-25T05:12:38;5.83;;;5.23;;
15216;SDS011;7711;46.634;14.318;2024-03-25T05:15:04;5.70;;;5.10;;
15216;SDS011;7711;46.634;14.318;2024-03-25T05:17:32;7.97;;;5.00;;
15216;SDS011;7711;46.634;14.318;2024-03-25T05:19:58;4.73;;;4.17;;
15216;SDS011;7711;46.634;14.318;2024-03-25T05:22:24;5.90;;;4.77;;
15216;SDS011;7711;46.634;14.318;2024-03-25T05:24:50;5.47;;;4.77;;
15216;SDS011;7711;46.634;14.318;2024-03-25T05:27:16;6.63;;;4.97;;
15216;SDS011;7711;46.634;14.318;2024-03-25T05:29:42;5.33;;;4.83;;
15216;SDS011;7711;46.634;14.318;2024-03-25T05:32:08;5.33;;;4.83;;
15216;SDS011;7711;46.634;14.318;2024-03-25T05:34:36;7.37;;;5.13;;
15216;SDS011;7711;46.634;14.318;2024-03-25T05:37:02;5.70;;;4.53;;
15216;SDS011;7711;46.634;14.318;2024-03-25T05:39:28;5.13;;;4.60;;
15216;SDS011;7711;46.634;14.318;2024-03-25T05:41:54;7.77;;;4.97;;
15216;SDS011;7711;46.634;14.318;2024-03-25T05:44:20;6.80;;;5.30;;
15216;SDS011;7711;46.634;14.318;2024-03-25T05:46:46;5.87;;;5.00;;
15216;SDS011;7711;46.634;14.318;2024-03-25T05:49:12;7.00;;;5.50;;
15216;SDS011;7711;46.634;14.318;2024-03-25T05:51:39;6.80;;;5.37;;
15216;SDS011;7711;46.634;14.318;2024-03-25T05:54:05;5.63;;;4.90;;
15216;SDS011;7711;46.634;14.318;2024-03-25T05:56:31;5.97;;;4.83;;
15216;SDS011;7711;46.634;14.318;2024-03-25T05:58:57;5.43;;;4.90;;
15216;SDS011;7711;46.634;14.318;2024-03-25T06:01:23;8.40;;;6.10;;
15216;SDS011;7711;46.634;14.318;2024-03-25T06:03:50;8.70;;;6.00;;
15216;SDS011;7711;46.634;14.318;2024-03-25T06:06:16;9.63;;;6.23;;
15216;SDS011;7711;46.634;14.318;2024-03-25T06:08:43;7.60;;;6.10;;
15216;SDS011;7711;46.634;14.318;2024-03-25T06:11:09;8.07;;;6.10;;
15216;SDS011;7711;46.634;14.318;2024-03-25T06:13:35;7.57;;;6.27;;
15216;SDS011;7711;46.634;14.318;2024-03-25T06:16:02;6.10;;;5.50;;
15216;SDS011;7711;46.634;14.318;2024-03-25T06:18:28;6.03;;;4.90;;
15216;SDS011;7711;46.634;14.318;2024-03-25T06:20:54;7.67;;;5.30;;
15216;SDS011;7711;46.634;14.318;2024-03-25T06:23:24;8.87;;;5.93;;
15216;SDS011;7711;46.634;14.318;2024-03-25T06:25:52;8.23;;;5.90;;
15216;SDS011;7711;46.634;14.318;2024-03-25T06:28:18;7.93;;;5.27;;
15216;SDS011;7711;46.634;14.318;2024-03-25T06:30:45;6.60;;;5.03;;
15216;SDS011;7711;46.634;14.318;2024-03-25T06:33:30;7.07;;;5.73;;
15216;SDS011;7711;46.634;14.318;2024-03-25T06:36:14;6.17;;;5.07;;
15216;SDS011;7711;46.634;14.318;2024-03-25T06:38:40;5.97;;;4.83;;
15216;SDS011;7711;46.634;14.318;2024-03-25T06:41:08;6.83;;;5.33;;
15216;SDS011;7711;46.634;14.318;2024-03-25T06:43:34;6.63;;;5.13;;
15216;SDS011;7711;46.634;14.318;2024-03-25T06:46:01;8.37;;;5.10;;
15216;SDS011;7711;46.634;14.318;2024-03-25T06:48:27;5.70;;;5.10;;
15216;SDS011;7711;46.634;14.318;2024-03-25T06:50:53;6.30;;;5.40;;
15216;SDS011;7711;46.634;14.318;2024-03-25T06:53:20;6.53;;;5.80;;
15216;SDS011;7711;46.634;14.318;2024-03-25T06:55:53;7.53;;;5.57;;
15216;SDS011;7711;46.634;14.318;2024-03-25T06:58:22;6.73;;;5.13;;
15216;SDS011;7711;46.634;14.318;2024-03-25T07:00:49;7.63;;;5.57;;
15216;SDS011;7711;46.634;14.318;2024-03-25T07:03:15;9.37;;;6.17;;
15216;SDS011;7711;46.634;14.318;2024-03-25T07:05:43;5.57;;;4.97;;
15216;SDS011;7711;46.634;14.318;2024-03-25T07:08:10;6.63;;;5.60;;
15216;SDS011;7711;46.634;14.318;2024-03-25T07:10:36;5.83;;;5.23;;
15216;SDS011;7711;46.634;14.318;2024-03-25T07:13:02;11.10;;;6.17;;
15216;SDS011;7711;46.634;14.318;2024-03-25T07:15:29;7.07;;;5.60;;
15216;SDS011;7711;46.634;14.318;2024-03-25T07:17:55;6.07;;;5.47;;
15216;SDS011;7711;46.634;14.318;2024-03-25T07:20:21;7.40;;;5.00;;
15216;SDS011;7711;46.634;14.318;2024-03-25T07:22:47;9.63;;;5.70;;
15216;SDS011;7711;46.634;14.318;2024-03-25T07:25:13;6.00;;;5.20;;
15216;SDS011;7711;46.634;14.318;2024-03-25T07:27:40;7.13;;;5.60;;
15216;SDS011;7711;46.634;14.318;2024-03-25T07:30:06;7.23;;;5.57;;
15216;SDS011;7711;46.634;14.318;2024-03-25T07:32:34;6.87;;;5.43;;
15216;SDS011;7711;46.634;14.318;2024-03-25T07:35:00;5.50;;;5.00;;
15216;SDS011;7711;46.634;14.318;2024-03-25T07:37:26;6.63;;;5.33;;
15216;SDS011;7711;46.634;14.318;2024-03-25T07:39:52;7.10;;;5.50;;
15216;SDS011;7711;46.634;14.318;2024-03-25T07:42:18;7.10;;;5.07;;
15216;SDS011;7711;46.634;14.318;2024-03-25T07:44:44;6.67;;;5.30;;
15216;SDS011;7711;46.634;14.318;2024-03-25T07:47:10;7.33;;;5.60;;
15216;SDS011;7711;46.634;14.318;2024-03-25T07:49:37;5.70;;;4.93;;
15216;SDS011;7711;46.634;14.318;2024-03-25T07:52:04;9.53;;;5.73;;
15216;SDS011;7711;46.634;14.318;2024-03-25T07:54:30;8.93;;;5.73;;
15216;SDS011;7711;46.634;14.318;2024-03-25T07:56:56;5.80;;;5.17;;
15216;SDS011;7711;46.634;14.318;2024-03-25T07:59:22;5.30;;;4.77;;
15216;SDS011;7711;46.634;14.318;2024-03-25T08:01:48;6.83;;;5.20;;
15216;SDS011;7711;46.634;14.318;2024-03-25T08:04:14;5.80;;;4.63;;
15216;SDS011;7711;46.634;14.318;2024-03-25T08:06:42;7.67;;;5.20;;
15216;SDS011;7711;46.634;14.318;2024-03-25T08:09:08;5.20;;;4.70;;
15216;SDS011;7711;46.634;14.318;2024-03-25T08:11:34;7.47;;;5.00;;
15216;SDS011;7711;46.634;14.318;2024-03-25T08:14:01;9.03;;;6.20;;
15216;SDS011;7711;46.634;14.318;2024-03-25T08:16:27;7.27;;;5.70;;
15216;SDS011;7711;46.634;14.318;2024-03-25T08:18:53;5.57;;;5.07;;
15216;SDS011;7711;46.634;14.318;2024-03-25T08:21:19;11.10;;;5.67;;
15216;SDS011;7711;46.634;14.318;2024-03-25T08:23:46;8.93;;;5.67;;
15216;SDS011;7711;46.634;14.318;2024-03-25T08:26:12;6.20;;;4.70;;
15216;SDS011;7711;46.634;14.318;2024-03-25T08:28:38;6.00;;;4.73;;
15216;SDS011;7711;46.634;14.318;2024-03-25T08:31:04;6.33;;;5.17;;
15216;SDS011;7711;46.634;14.318;2024-03-25T08:33:30;5.30;;;4.80;;
15216;SDS011;7711;46.634;14.318;2024-03-25T08:35:56;6.87;;;5.10;;
15216;SDS011;7711;46.634;14.318;2024-03-25T08:38:22;5.00;;;4.17;;
15216;SDS011;7711;46.634;14.318;2024-03-25T08:40:50;6.70;;;4.87;;
15216;SDS011;7711;46.634;14.318;2024-03-25T08:43:16;6.13;;;4.80;;
15216;SDS011;7711;46.634;14.318;2024-03-25T08:45:42;5.60;;;5.10;;
15216;SDS011;7711;46.634;14.318;2024-03-25T08:48:08;5.20;;;4.60;;
15216;SDS011;7711;46.634;14.318;2024-03-25T08:50:34;6.37;;;5.10;;
15216;SDS011;7711;46.634;14.318;2024-03-25T08:53:01;5.07;;;4.57;;
15216;SDS011;7711;46.634;14.318;2024-03-25T08:55:28;5.63;;;4.83;;
15216;SDS011;7711;46.634;14.318;2024-03-25T08:57:56;4.47;;;4.07;;
15216;SDS011;7711;46.634;14.318;2024-03-25T09:00:22;6.67;;;4.73;;
15216;SDS011;7711;46.634;14.318;2024-03-25T09:02:49;5.60;;;4.27;;
15216;SDS011;7711;46.634;14.318;2024-03-25T09:05:15;4.97;;;4.07;;
15216;SDS011;7711;46.634;14.318;2024-03-25T09:07:41;4.20;;;3.80;;
15216;SDS011;7711;46.634;14.318;2024-03-25T09:10:07;4.77;;;4.37;;
15216;SDS011;7711;46.634;14.318;2024-03-25T09:12:52;4.07;;;3.67;;
15216;SDS011;7711;46.634;14.318;2024-03-25T09:15:19;4.63;;;3.87;;
15216;SDS011;7711;46.634;14.318;2024-03-25T09:17:45;5.30;;;3.80;;
15216;SDS011;7711;46.634;14.318;2024-03-25T09:20:11;9.43;;;4.20;;
15216;SDS011;7711;46.634;14.318;2024-03-25T09:22:41;3.93;;;3.40;;
15216;SDS011;7711;46.634;14.318;2024-03-25T09:25:07;3.87;;;3.47;;
15216;SDS011;7711;46.634;14.318;2024-03-25T09:27:34;3.80;;;3.50;;
15216;SDS011;7711;46.634;14.318;2024-03-25T09:30:00;6.50;;;4.13;;
15216;SDS011;7711;46.634;14.318;2024-03-25T09:32:27;4.03;;;3.63;;
15216;SDS011;7711;46.634;14.318;2024-03-25T09:34:53;5.20;;;3.97;;
15216;SDS011;7711;46.634;14.318;2024-03-25T09:37:19;4.33;;;3.63;;
15216;SDS011;7711;46.634;14.318;2024-03-25T09:39:45;3.80;;;3.40;;
15216;SDS011;7711;46.634;14.318;2024-03-25T09:42:12;4.47;;;4.07;;
15216;SDS011;7711;46.634;14.318;2024-03-25T09:44:41;4.83;;;3.67;;
15216;SDS011;7711;46.634;14.318;2024-03-25T09:47:07;4.00;;;3.50;;
15216;SDS011;7711;46.634;14.318;2024-03-25T09:49:34;4.87;;;3.43;;
15216;SDS011;7711;46.634;14.318;2024-03-25T09:52:02;4.57;;;4.00;;
15216;SDS011;7711;46.634;14.318;2024-03-25T09:54:28;3.93;;;3.53;;
15216;SDS011;7711;46.634;14.318;2024-03-25T09:56:54;5.80;;;3.60;;
15216;SDS011;7711;46.634;14.318;2024-03-25T09:59:21;5.97;;;3.90;;
15216;SDS011;7711;46.634;14.318;2024-03-25T10:01:47;3.37;;;3.07;;
15216;SDS011;7711;46.634;14.318;2024-03-25T10:04:13;5.43;;;3.50;;
15216;SDS011;7711;46.634;14.318;2024-03-25T10:06:40;4.53;;;4.07;;
15216;SDS011;7711;46.634;14.318;2024-03-25T10:09:07;6.27;;;3.60;;
15216;SDS011;7711;46.634;14.318;2024-03-25T10:11:34;4.17;;;3.40;;
15216;SDS011;7711;46.634;14.318;2024-03-25T10:14:00;6.10;;;3.77;;
15216;SDS011;7711;46.634;14.318;2024-03-25T10:16:26;5.83;;;3.93;;
15216;SDS011;7711;46.634;14.318;2024-03-25T10:18:52;3.90;;;3.30;;
15216;SDS011;7711;46.634;14.318;2024-03-25T10:21:19;3.30;;;3.00;;
15216;SDS011;7711;46.634;14.318;2024-03-25T10:23:47;4.07;;;3.07;;
15216;SDS011;7711;46.634;14.318;2024-03-25T10:26:27;5.50;;;3.47;;
15216;SDS011;7711;46.634;14.318;2024-03-25T10:28:58;8.07;;;4.97;;
15216;SDS011;7711;46.634;14.318;2024-03-25T10:31:25;4.97;;;3.67;;
15216;SDS011;7711;46.634;14.318;2024-03-25T10:33:51;5.87;;;3.30;;
15216;SDS011;7711;46.634;14.318;2024-03-25T10:36:18;4.23;;;2.97;;
15216;SDS011;7711;46.634;14.318;2024-03-25T10:38:47;5.27;;;3.20;;
15216;SDS011;7711;46.634;14.318;2024-03-25T10:41:16;3.90;;;3.10;;
15216;SDS011;7711;46.634;14.318;2024-03-25T10:43:44;3.50;;;3.17;;
15216;SDS011;7711;46.634;14.318;2024-03-25T10:46:12;3.80;;;3.10;;
15216;SDS011;7711;46.634;14.318;2024-03-25T10:48:42;2.80;;;2.60;;
15216;SDS011;7711;46.634;14.318;2024-03-25T10:51:17;3.20;;;2.90;;
15216;SDS011;7711;46.634;14.318;2024-03-25T10:53:47;6.47;;;2.77;;
15216;SDS011;7711;46.634;14.318;2024-03-25T10:56:17;4.43;;;2.70;;
15216;SDS011;7711;46.634;14.318;2024-03-25T10:58:46;3.60;;;2.70;;
15216;SDS011;7711;46.634;14.318;2024-03-25T11:01:14;6.40;;;2.77;;
15216;SDS011;7711;46.634;14.318;2024-03-25T11:03:42;5.73;;;2.40;;
15216;SDS011;7711;46.634;14.318;2024-03-25T11:06:09;2.30;;;2.10;;
15216;SDS011;7711;46.634;14.318;2024-03-25T11:08:36;2.30;;;2.00;;
15216;SDS011;7711;46.634;14.318;2024-03-25T11:11:03;3.63;;;2.27;;
15216;SDS011;7711;46.634;14.318;2024-03-25T11:13:30;2.50;;;2.10;;
15216;SDS011;7711;46.634;14.318;2024-03-25T11:15:57;2.90;;;1.70;;
15216;SDS011;7711;46.634;14.318;2024-03-25T11:18:24;1.80;;;1.70;;
15216;SDS011;7711;46.634;14.318;2024-03-25T11:21:00;4.07;;;2.00;;
15216;SDS011;7711;46.634;14.318;2024-03-25T11:23:26;2.43;;;2.00;;
15216;SDS011;7711;46.634;14.318;2024-03-25T11:26:00;1.87;;;1.77;;
15216;SDS011;7711;46.634;14.318;2024-03-25T11:28:28;2.07;;;1.70;;
15216;SDS011;7711;46.634;14.318;2024-03-25T11:30:55;2.50;;;1.80;;
15216;SDS011;7711;46.634;14.318;2024-03-25T11:33:21;3.03;;;1.77;;
15216;SDS011;7711;46.634;14.318;2024-03-25T11:35:47;1.90;;;1.70;;
15216;SDS011;7711;46.634;14.318;2024-03-25T11:38:14;2.77;;;1.73;;
15216;SDS011;7711;46.634;14.318;2024-03-25T11:40:41;1.85;;;1.27;;
15216;SDS011;7711;46.634;14.318;2024-03-25T11:43:10;1.60;;;1.50;;
15216;SDS011;7711;46.634;14.318;2024-03-25T11:45:44;1.30;;;1.20;;
15216;SDS011;7711;46.634;14.318;2024-03-25T11:48:13;1.35;;;1.25;;
15216;SDS011;7711;46.634;14.318;2024-03-25T11:50:39;1.60;;;1.30;;
15216;SDS011;7711;46.634;14.318;2024-03-25T11:53:06;1.08;;;0.98;;
15216;SDS011;7711;46.634;14.318;2024-03-25T11:55:33;0.90;;;0.90;;
15216;SDS011;7711;46.634;14.318;2024-03-25T11:57:59;1.27;;;1.20;;
15216;SDS011;7711;46.634;14.318;2024-03-25T12:00:27;1.35;;;1.25;;
15216;SDS011;7711;46.634;14.318;2024-03-25T12:02:53;1.60;;;1.30;;
15216;SDS011;7711;46.634;14.318;2024-03-25T12:05:20;1.33;;;1.30;;
15216;SDS011;7711;46.634;14.318;2024-03-25T12:07:46;1.35;;;1.25;;
15216;SDS011;7711;46.634;14.318;2024-03-25T12:10:14;2.28;;;1.38;;
15216;SDS011;7711;46.634;14.318;2024-03-25T12:12:59;1.30;;;1.20;;
15216;SDS011;7711;46.634;14.318;2024-03-25T12:15:27;3.17;;;2.05;;
15216;SDS011;7711;46.634;14.318;2024-03-25T12:17:53;1.50;;;1.40;;
15216;SDS011;7711;46.634;14.318;2024-03-25T12:20:19;1.88;;;1.67;;
15216;SDS011;7711;46.634;14.318;2024-03-25T12:22:46;2.10;;;1.58;;
15216;SDS011;7711;46.634;14.318;2024-03-25T12:25:13;1.60;;;1.50;;
15216;SDS011;7711;46.634;14.318;2024-03-25T12:27:40;1.25;;;1.25;;
15216;SDS011;7711;46.634;14.318;2024-03-25T12:30:06;1.70;;;1.60;;
15216;SDS011;7711;46.634;14.318;2024-03-25T12:32:39;1.55;;;1.45;;
15216;SDS011;7711;46.634;14.318;2024-03-25T12:35:07;2.50;;;1.60;;
15216;SDS011;7711;46.634;14.318;2024-03-25T12:37:34;4.07;;;1.60;;
15216;SDS011;7711;46.634;14.318;2024-03-25T12:40:01;1.35;;;1.25;;
15216;SDS011;7711;46.634;14.318;2024-03-25T12:42:29;1.75;;;1.52;;
15216;SDS011;7711;46.634;14.318;2024-03-25T12:44:56;1.95;;;1.52;;
15216;SDS011;7711;46.634;14.318;2024-03-25T12:47:22;1.48;;;1.38;;
15216;SDS011;7711;46.634;14.318;2024-03-25T12:49:50;1.27;;;1.17;;
15216;SDS011;7711;46.634;14.318;2024-03-25T12:52:16;1.25;;;1.15;;
15216;SDS011;7711;46.634;14.318;2024-03-25T12:54:42;1.40;;;1.30;;
15216;SDS011;7711;46.634;14.318;2024-03-25T12:57:08;0.88;;;0.88;;
15216;SDS011;7711;46.634;14.318;2024-03-25T12:59:35;1.30;;;1.20;;
15216;SDS011;7711;46.634;14.318;2024-03-25T13:02:01;1.38;;;1.27;;
15216;SDS011;7711;46.634;14.318;2024-03-25T13:04:28;1.23;;;1.15;;
15216;SDS011;7711;46.634;14.318;2024-03-25T13:06:55;1.40;;;1.30;;
15216;SDS011;7711;46.634;14.318;2024-03-25T13:09:22;1.52;;;1.10;;
15216;SDS011;7711;46.634;14.318;2024-03-25T13:11:48;1.40;;;1.30;;
15216;SDS011;7711;46.634;14.318;2024-03-25T13:14:14;1.13;;;1.13;;
15216;SDS011;7711;46.634;14.318;2024-03-25T13:16:41;1.40;;;1.30;;
15216;SDS011;7711;46.634;14.318;2024-03-25T13:19:07;1.08;;;1.08;;
15216;SDS011;7711;46.634;14.318;2024-03-25T13:21:33;1.52;;;1.17;;
15216;SDS011;7711;46.634;14.318;2024-03-25T13:24:01;1.17;;;0.93;;
15216;SDS011;7711;46.634;14.318;2024-03-25T13:26:27;1.17;;;1.10;;
15216;SDS011;7711;46.634;14.318;2024-03-25T13:28:53;1.50;;;1.40;;
15216;SDS011;7711;46.634;14.318;2024-03-25T13:31:19;1.42;;;1.08;;
15216;SDS011;7711;46.634;14.318;2024-03-25T13:33:46;1.98;;;0.90;;
15216;SDS011;7711;46.634;14.318;2024-03-25T13:36:12;1.30;;;1.17;;
15216;SDS011;7711;46.634;14.318;2024-03-25T13:38:38;1.33;;;1.23;;
15216;SDS011;7711;46.634;14.318;2024-03-25T13:41:06;1.38;;;1.33;;
15216;SDS011;7711;46.634;14.318;2024-03-25T13:43:32;1.10;;;1.10;;
15216;SDS011;7711;46.634;14.318;2024-03-25T13:45:59;1.05;;;1.00;;
15216;SDS011;7711;46.634;14.318;2024-03-25T13:48:25;2.20;;;1.33;;
15216;SDS011;7711;46.634;14.318;2024-03-25T13:50:53;1.20;;;1.10;;
15216;SDS011;7711;46.634;14.318;2024-03-25T13:53:19;0.95;;;0.95;;
15216;SDS011;7711;46.634;14.318;2024-03-25T13:55:46;1.20;;;1.08;;
15216;SDS011;7711;46.634;14.318;2024-03-25T13:58:14;1.58;;;1.42;;
15216;SDS011;7711;46.634;14.318;2024-03-25T14:00:40;1.15;;;1.15;;
15216;SDS011;7711;46.634;14.318;2024-03-25T14:03:06;1.30;;;1.20;;
15216;SDS011;7711;46.634;14.318;2024-03-25T14:05:32;1.52;;;1.25;;
15216;SDS011;7711;46.634;14.318;2024-03-25T14:07:59;1.00;;;1.00;;
15216;SDS011;7711;46.634;14.318;2024-03-25T14:10:25;2.40;;;1.00;;
15216;SDS011;7711;46.634;14.318;2024-03-25T14:12:52;2.67;;;1.73;;
15216;SDS011;7711;46.634;14.318;2024-03-25T14:15:19;2.35;;;1.73;;
15216;SDS011;7711;46.634;14.318;2024-03-25T14:17:45;2.10;;;1.90;;
15216;SDS011;7711;46.634;14.318;2024-03-25T14:20:12;2.15;;;1.95;;
15216;SDS011;7711;46.634;14.318;2024-03-25T14:22:38;1.98;;;1.70;;
15216;SDS011;7711;46.634;14.318;2024-03-25T14:25:05;1.20;;;1.20;;
15216;SDS011;7711;46.634;14.318;2024-03-25T14:27:31;1.17;;;1.10;;
15216;SDS011;7711;46.634;14.318;2024-03-25T14:29:58;1.30;;;1.20;;
15216;SDS011;7711;46.634;14.318;2024-03-25T14:32:25;1.50;;;1.40;;
15216;SDS011;7711;46.634;14.318;2024-03-25T14:34:52;1.52;;;1.42;;
15216;SDS011;7711;46.634;14.318;2024-03-25T14:37:18;1.70;;;1.30;;
15216;SDS011;7711;46.634;14.318;2024-03-25T14:39:44;1.40;;;1.30;;
15216;SDS011;7711;46.634;14.318;2024-03-25T14:42:11;1.88;;;1.60;;
15216;SDS011;7711;46.634;14.318;2024-03-25T14:44:37;1.60;;;1.50;;
15216;SDS011;7711;46.634;14.318;2024-03-25T14:47:03;1.98;;;1.38;;